Kemerovo Airport
UNEE : now visible

Airfield :











YOU CAN JOIN US ON...

 
LOGIN :

Register | Disclaimer

   EN    FR    IT 

 









Legend :    VFR   Marginal VFR   IFR   Intensive IFR   Very Intensive IFR
Visi :
Ceiling :
>= 8 km
>= 3000ft
5 to 8 km
1000 to 3000 ft
1500m to 5 km
500 to 1000 ft
800 to 1500m
200 to 500 ft
< 800m
< 200 ft
Symbols :   Thunderstorms  Fog  Heavy snow  Heavy precipitations  Wind > 20 kt






- Airport Elevation : 863 ft
- IATA code : KEJ


UNEE - Kemerovo

CURRENT METAR :
  • 250030Z 12001MPS CAVOK 20/20 Q1003 R23/CLRD60 NOSIG RMK QFE729

EXPIRED METARs :
  • 250000Z 00000MPS CAVOK 20/20 Q1003 R23/CLRD60 NOSIG RMK QFE729
  • 242330Z 00000MPS 9000 NSC 18/18 Q1003 R23/CLRD60 NOSIG RMK QFE729
  • 242300Z 00000MPS CAVOK 18/18 Q1003 R23/CLRD60 NOSIG RMK QFE729
  • 242230Z 20001MPS CAVOK 19/18 Q1003 R23/CLRD60 NOSIG RMK QFE729
  • 242200Z 00000MPS CAVOK 18/18 Q1003 R23/CLRD60 NOSIG RMK QFE729
  • 242130Z 00000MPS CAVOK 18/18 Q1003 R23/CLRD60 NOSIG RMK QFE729
  • 242100Z 00000MPS CAVOK 18/18 Q1003 R23/CLRD60 NOSIG RMK QFE729
  • 242030Z 14001MPS CAVOK 18/18 Q1003 R23/CLRD60 NOSIG RMK QFE729
  • 242000Z 13002MPS CAVOK 18/17 Q1003 R23/CLRD60 NOSIG RMK QFE729

TAF TAF UNEE
Valid from the 25 at 00:00 until the 26 at 00:00 UTC


242300Z 2500/2524 15003G08MPS 8000 SCT040CB TX29/2509Z TN18/2523Z
TEMPO 2504/2515 -TSRA
UNNT FIR / Asia



MET'MAP, your aeronautical weather chart ! - Copyright ORBIFLY December 2007 - Disclaimer

ORBIFLY MET'MAP TEAM :

Programming & Development : Alexandra Zaïnal
Original concept : Baudouin d'Aumeries
Technical & hardware support : Manuel Goepfert
Assistance : Marc-Olivier Méhu




SOURCES & CREDITS :

   NOAA       Earth
Advisory